KAMA/AMA METAR and TAF weather

Enter ICAO airport designator
Station Type Date Time Source
KAMA METAR 2019/02/21 11:53 UTC NOAA

KAMA 211153Z AUTO 16012KT 10SM FEW120 03/M07 A2980 RMK AO2 SLP083 T00331067 10044 20006 53002


Station Type Date Time Source
KAMA Decoded METAR 2019/02/21 11:53 UTC NOAA

AMARILLO INTERNATIONAL AIRPORT, TX, United States (KAMA) 35-13N 101-43W 1093M
Feb 21, 2019 - 06:53 AM EST / 2019.02.21 1153 UTC
Wind: from the SSE (160 degrees) at 14 MPH (12 KT):0
Visibility: 10 mile(s):0
Sky conditions: mostly clear
Temperature: 37.9 F (3.3 C)
Dew Point: 19.9 F (-6.7 C)
Relative Humidity: 47%
Pressure (altimeter): 29.8 in. Hg (1009 hPa)
Pressure tendency: 0.01 inches (0.2 hPa) higher than three hours ago
ob: KAMA 211153Z AUTO 16012KT 10SM FEW120 03/M07 A2980 RMK AO2 SLP083 T00331067 10044 20006 53002
cycle: 12

Station Type Date Time Source
KAMA TAF 2019/02/21 12:54 UTC NOAA

TAF KAMA 211150Z 2112/2212 17014KT P6SM BKN100 OVC300
FM211700 17022G32KT P6SM SCT100 BKN300
FM220100 14018KT P6SM OVC300
FM220900 16016KT P6SM OVC007


Example: see airport list